createdAt,value
2023-01-20T00:01:28.378Z,98.13
2023-01-20T00:04:00.666Z,90.90
2023-01-20T00:06:31.170Z,88.97
2023-01-20T00:09:07.609Z,90.00
2023-01-20T00:11:46.163Z,102.90
2023-01-20T00:14:17.446Z,94.47
2023-01-20T00:16:48.704Z,98.53
2023-01-20T00:19:17.262Z,100.67
2023-01-20T00:21:48.339Z,103.40
2023-01-20T00:24:27.264Z,96.37
2023-01-20T00:26:58.487Z,101.63
2023-01-20T00:29:27.258Z,90.57
2023-01-20T00:32:04.984Z,92.47
2023-01-20T00:34:37.817Z,94.23
2023-01-20T00:37:09.682Z,99.37
2023-01-20T00:39:42.500Z,87.70
2023-01-20T00:42:13.096Z,105.07
2023-01-20T00:45:00.586Z,93.63
2023-01-20T00:47:40.959Z,90.23
2023-01-20T00:50:36.697Z,90.80
2023-01-20T00:53:16.970Z,93.70
2023-01-20T00:55:54.770Z,81.73
2023-01-20T00:58:35.946Z,91.07
2023-01-20T01:01:13.386Z,95.30
2023-01-20T01:03:54.539Z,92.47
2023-01-20T01:06:32.300Z,78.93
2023-01-20T01:09:02.550Z,77.23
2023-01-20T01:11:57.207Z,82.83
2023-01-20T01:14:42.075Z,85.77
2023-01-20T01:17:22.303Z,79.57
2023-01-20T01:20:05.008Z,89.07
2023-01-20T01:22:44.685Z,87.17
2023-01-20T01:25:19.036Z,80.90
2023-01-20T01:27:49.207Z,85.20
2023-01-20T01:30:22.154Z,77.07
2023-01-20T01:32:50.814Z,90.07
2023-01-20T01:35:23.669Z,84.90
2023-01-20T01:37:53.076Z,89.57
2023-01-20T01:40:28.695Z,82.20
2023-01-20T01:43:01.244Z,72.17
2023-01-20T01:45:33.258Z,77.27
2023-01-20T01:48:06.912Z,91.43
2023-01-20T01:50:42.991Z,80.27
2023-01-20T01:53:14.711Z,84.60
2023-01-20T01:55:51.332Z,82.57
2023-01-20T01:58:24.290Z,79.80
2023-01-20T02:00:53.736Z,81.70
2023-01-20T02:03:23.003Z,90.57
2023-01-20T02:05:53.865Z,80.93
2023-01-20T02:08:22.531Z,79.43
2023-01-20T02:10:53.750Z,79.50
2023-01-20T02:13:31.044Z,80.77
2023-01-20T02:16:10.465Z,92.40
2023-01-20T02:19:06.127Z,85.87
2023-01-20T02:22:26.058Z,91.83
2023-01-20T02:25:18.525Z,89.30
2023-01-20T02:28:25.476Z,84.93
2023-01-20T02:31:12.990Z,88.43
2023-01-20T02:33:50.926Z,89.07
2023-01-20T02:36:28.933Z,94.53
2023-01-20T02:39:02.209Z,86.10
2023-01-20T02:41:40.129Z,83.93
2023-01-20T02:44:15.143Z,86.67
2023-01-20T02:46:53.395Z,94.30
2023-01-20T02:49:28.572Z,104.43
2023-01-20T02:52:03.176Z,87.10
2023-01-20T02:54:36.336Z,86.97
2023-01-20T02:57:08.418Z,82.20
2023-01-20T02:59:43.298Z,89.77
2023-01-20T03:02:15.705Z,89.90
2023-01-20T03:04:51.285Z,93.03
2023-01-20T03:07:27.519Z,87.47
2023-01-20T03:10:01.503Z,77.00
2023-01-20T03:12:39.231Z,89.50
2023-01-20T03:15:09.596Z,77.70
2023-01-20T03:17:38.302Z,79.50
2023-01-20T03:20:10.003Z,81.67
2023-01-20T03:22:38.806Z,75.27
2023-01-20T03:25:09.829Z,74.17
2023-01-20T03:27:40.496Z,79.73
2023-01-20T03:30:14.722Z,81.90
2023-01-20T03:32:44.296Z,76.73
2023-01-20T03:35:23.405Z,76.30
2023-01-20T03:37:52.239Z,79.17
2023-01-20T03:40:22.081Z,80.07
2023-01-20T03:42:58.152Z,85.53
2023-01-20T03:45:33.102Z,82.00
2023-01-20T03:48:09.249Z,80.73
2023-01-20T03:50:48.584Z,80.17
2023-01-20T03:53:37.520Z,71.50
2023-01-20T03:56:10.520Z,84.20
2023-01-20T03:58:44.738Z,76.83
2023-01-20T04:01:19.328Z,79.27
2023-01-20T04:03:51.971Z,77.47
2023-01-20T04:06:30.841Z,87.13
2023-01-20T04:09:04.154Z,76.00
2023-01-20T04:11:35.818Z,85.20
2023-01-20T04:14:04.691Z,75.13
2023-01-20T04:16:33.147Z,72.90
2023-01-20T04:19:04.844Z,82.03
2023-01-20T04:21:37.421Z,70.90
2023-01-20T04:24:08.546Z,76.50
2023-01-20T04:26:36.991Z,78.20
2023-01-20T04:29:11.937Z,70.37
2023-01-20T04:31:41.612Z,65.20
2023-01-20T04:34:15.524Z,60.73
2023-01-20T04:36:47.320Z,63.27
2023-01-20T04:39:15.769Z,64.93
2023-01-20T04:41:44.156Z,58.20
2023-01-20T04:44:12.597Z,66.77
2023-01-20T04:46:41.142Z,66.03
2023-01-20T04:49:10.559Z,63.40
2023-01-20T04:51:38.921Z,57.43
2023-01-20T04:54:08.671Z,66.27
2023-01-20T04:56:37.005Z,67.57
2023-01-20T04:59:05.453Z,59.70
2023-01-20T05:01:34.049Z,66.60
2023-01-20T05:04:02.465Z,60.63
2023-01-20T05:06:30.806Z,73.27
2023-01-20T05:08:59.127Z,58.53
2023-01-20T05:11:28.846Z,67.87
2023-01-20T05:13:57.183Z,67.00
2023-01-20T05:16:26.165Z,62.57
2023-01-20T05:18:55.748Z,66.03
2023-01-20T05:21:24.287Z,71.40
2023-01-20T05:23:55.460Z,79.20
2023-01-20T05:26:24.291Z,85.20
2023-01-20T05:28:54.408Z,73.00
2023-01-20T05:31:22.832Z,70.60
2023-01-20T05:33:51.365Z,74.83
2023-01-20T05:36:19.686Z,86.70
2023-01-20T05:38:48.066Z,88.43
2023-01-20T05:41:16.372Z,83.03
2023-01-20T05:43:44.727Z,80.83
2023-01-20T05:46:15.671Z,77.03
2023-01-20T05:48:44.028Z,92.63
2023-01-20T05:51:12.290Z,96.00
2023-01-20T05:53:40.653Z,92.23
2023-01-20T05:56:12.141Z,84.37
2023-01-20T05:58:40.454Z,89.47
2023-01-20T06:01:11.014Z,81.63
2023-01-20T06:03:41.533Z,83.40
2023-01-20T06:06:14.328Z,85.13
2023-01-20T06:08:43.050Z,81.53
2023-01-20T06:11:11.676Z,78.87
2023-01-20T06:13:41.954Z,74.13
2023-01-20T06:16:10.313Z,63.00
2023-01-20T06:18:40.058Z,85.60
2023-01-20T06:21:08.328Z,81.93
2023-01-20T06:23:37.058Z,81.47
2023-01-20T06:26:07.166Z,85.40
2023-01-20T06:28:35.922Z,69.97
2023-01-20T06:31:06.224Z,85.37
2023-01-20T06:33:35.539Z,79.63
2023-01-20T06:36:06.131Z,91.40
2023-01-20T06:38:35.876Z,84.63
2023-01-20T06:41:06.503Z,82.67
2023-01-20T06:43:39.996Z,77.23
2023-01-20T06:46:11.437Z,69.33
2023-01-20T06:48:40.140Z,76.23
2023-01-20T06:51:12.804Z,86.33
2023-01-20T06:53:42.144Z,83.97
2023-01-20T06:56:11.745Z,63.50
2023-01-20T06:58:40.776Z,79.23
2023-01-20T07:01:12.804Z,80.53
2023-01-20T07:03:42.821Z,84.23
2023-01-20T07:06:18.435Z,81.40
2023-01-20T07:08:47.292Z,80.53
2023-01-20T07:11:15.743Z,73.07
2023-01-20T07:13:44.662Z,76.43
2023-01-20T07:16:15.568Z,92.73
2023-01-20T07:18:45.088Z,85.90
2023-01-20T07:21:13.487Z,72.43
2023-01-20T07:23:43.198Z,80.87
2023-01-20T07:26:13.306Z,78.07
2023-01-20T07:28:42.015Z,69.53
2023-01-20T07:31:12.281Z,68.13
2023-01-20T07:33:41.021Z,78.23
2023-01-20T07:36:10.962Z,69.43
2023-01-20T07:38:39.977Z,78.13
2023-01-20T07:41:16.139Z,74.67
2023-01-20T07:43:45.004Z,85.47
2023-01-20T07:46:14.059Z,78.33
2023-01-20T07:48:42.966Z,73.70
2023-01-20T07:51:13.611Z,72.17
2023-01-20T07:53:46.523Z,72.53
2023-01-20T07:56:18.116Z,76.23
2023-01-20T07:58:47.719Z,66.03
2023-01-20T08:01:18.002Z,70.87
2023-01-20T08:03:46.727Z,70.10
2023-01-20T08:06:16.886Z,61.17
2023-01-20T08:08:45.405Z,62.83
2023-01-20T08:11:17.107Z,72.60
2023-01-20T08:13:45.606Z,61.93
2023-01-20T08:16:16.103Z,74.27
2023-01-20T08:18:44.523Z,57.97
2023-01-20T08:21:20.541Z,60.67
2023-01-20T08:23:49.024Z,64.50
2023-01-20T08:26:19.584Z,63.73
2023-01-20T08:28:48.965Z,64.47
2023-01-20T08:31:19.702Z,71.03
2023-01-20T08:33:48.734Z,65.10
2023-01-20T08:36:19.816Z,70.40
2023-01-20T08:38:49.064Z,67.70
2023-01-20T08:41:20.817Z,61.43
2023-01-20T08:43:49.903Z,61.03
2023-01-20T08:46:20.161Z,69.83
2023-01-20T08:48:49.626Z,73.10
2023-01-20T08:51:22.815Z,71.53
2023-01-20T08:53:51.749Z,67.97
2023-01-20T08:56:22.009Z,57.93
2023-01-20T08:58:50.930Z,66.57
2023-01-20T09:01:21.037Z,64.93
2023-01-20T09:04:04.248Z,64.53
2023-01-20T09:06:39.486Z,67.13
2023-01-20T09:09:07.868Z,66.60
2023-01-20T09:11:38.166Z,58.63
2023-01-20T09:14:06.616Z,70.73
2023-01-20T09:16:35.554Z,63.93
2023-01-20T09:19:04.381Z,51.47
2023-01-20T09:21:32.847Z,60.03
2023-01-20T09:24:01.539Z,55.33
2023-01-20T09:26:38.811Z,57.07
2023-01-20T09:29:11.836Z,54.43
2023-01-20T09:31:44.599Z,54.93
2023-01-20T09:34:19.851Z,53.20
2023-01-20T09:36:55.262Z,58.10
2023-01-20T09:39:43.064Z,52.90
2023-01-20T09:42:47.648Z,43.40
2023-01-20T09:45:26.359Z,47.70
2023-01-20T09:48:02.999Z,54.43
2023-01-20T09:51:00.035Z,51.67
2023-01-20T09:53:51.748Z,54.63
2023-01-20T09:56:22.718Z,51.87
2023-01-20T09:58:57.531Z,50.63
2023-01-20T10:01:32.578Z,55.37
2023-01-20T10:04:06.238Z,45.80
2023-01-20T10:06:43.026Z,50.40
2023-01-20T10:09:21.392Z,46.87
2023-01-20T10:11:52.291Z,50.00
2023-01-20T10:14:26.671Z,48.97
2023-01-20T10:17:05.633Z,45.77
2023-01-20T10:19:42.468Z,43.67
2023-01-20T10:22:17.421Z,46.43
2023-01-20T10:24:53.010Z,41.27
2023-01-20T10:27:21.466Z,43.17
2023-01-20T10:29:55.609Z,43.27
2023-01-20T10:32:33.507Z,35.77
2023-01-20T10:35:08.714Z,44.23
2023-01-20T10:37:37.367Z,37.47
2023-01-20T10:40:18.754Z,40.53
2023-01-20T10:42:50.541Z,38.77
2023-01-20T10:45:26.696Z,38.17
2023-01-20T10:48:06.660Z,47.93
2023-01-20T10:50:54.276Z,40.20
2023-01-20T10:53:35.725Z,40.60
2023-01-20T10:56:12.038Z,45.23
2023-01-20T10:58:45.374Z,37.87
2023-01-20T11:01:17.956Z,46.43
2023-01-20T11:03:50.007Z,38.07
2023-01-20T11:06:21.668Z,39.57
2023-01-20T11:08:52.036Z,40.93
2023-01-20T11:11:23.560Z,40.20
2023-01-20T11:13:52.870Z,37.13
2023-01-20T11:16:24.794Z,49.00
2023-01-20T11:19:03.262Z,42.83
2023-01-20T11:21:33.561Z,42.47
2023-01-20T11:24:02.225Z,45.13
2023-01-20T11:26:34.530Z,39.47
2023-01-20T11:29:05.430Z,41.43
2023-01-20T11:31:40.790Z,41.93
2023-01-20T11:34:25.539Z,42.00
2023-01-20T11:37:17.551Z,46.23
2023-01-20T11:39:58.111Z,40.50
2023-01-20T11:42:28.880Z,43.23
2023-01-20T11:45:15.200Z,41.07
2023-01-20T11:47:47.944Z,49.17
2023-01-20T11:50:31.331Z,50.23
2023-01-20T11:53:23.950Z,44.57
2023-01-20T11:55:57.948Z,46.00
2023-01-20T11:58:29.837Z,39.73
2023-01-20T12:01:03.704Z,39.97
2023-01-20T12:03:53.685Z,44.20
2023-01-20T12:06:27.098Z,37.83
2023-01-20T12:09:00.744Z,40.03
2023-01-20T12:11:32.381Z,39.67
2023-01-20T12:14:23.353Z,42.60
2023-01-20T12:17:07.525Z,41.70
2023-01-20T12:19:45.420Z,44.73
2023-01-20T12:22:22.327Z,38.00
2023-01-20T12:25:10.305Z,37.57
2023-01-20T12:27:44.796Z,38.77
2023-01-20T12:30:29.037Z,36.60
2023-01-20T12:32:59.815Z,34.10
2023-01-20T12:35:34.580Z,29.63
2023-01-20T12:38:08.839Z,29.87
2023-01-20T12:40:47.433Z,30.73
2023-01-20T12:43:35.163Z,28.07
2023-01-20T12:46:26.169Z,26.47
2023-01-20T12:49:11.224Z,27.90
2023-01-20T12:51:52.855Z,29.33
2023-01-20T12:54:49.296Z,29.20
2023-01-20T12:57:29.405Z,24.87
2023-01-20T13:00:20.892Z,27.10
2023-01-20T13:03:31.043Z,29.07
2023-01-20T13:06:34.757Z,26.77
2023-01-20T13:09:21.817Z,23.27
2023-01-20T13:12:03.298Z,29.33
2023-01-20T13:14:40.782Z,26.13
2023-01-20T13:17:18.807Z,23.53
2023-01-20T13:19:49.614Z,21.53
2023-01-20T13:22:21.118Z,23.37
2023-01-20T13:24:51.846Z,26.17
2023-01-20T13:27:28.029Z,20.67
2023-01-20T13:29:58.550Z,25.30
2023-01-20T13:32:32.311Z,22.77
2023-01-20T13:35:01.962Z,22.27
2023-01-20T13:37:39.784Z,21.93
2023-01-20T13:40:42.410Z,23.23
2023-01-20T13:43:38.937Z,23.20
2023-01-20T13:46:43.688Z,22.37
2023-01-20T13:49:24.652Z,26.40
2023-01-20T13:51:53.320Z,27.20
2023-01-20T13:54:46.212Z,29.67
2023-01-20T13:57:37.036Z,27.63
2023-01-20T14:00:20.925Z,27.40
2023-01-20T14:02:50.282Z,34.03
2023-01-20T14:05:30.641Z,33.00
2023-01-20T14:08:02.753Z,34.37
2023-01-20T14:10:33.746Z,26.33
2023-01-20T14:13:03.431Z,27.43
2023-01-20T14:15:38.533Z,31.30
2023-01-20T14:18:15.271Z,26.23
2023-01-20T14:20:45.512Z,28.13
2023-01-20T14:23:28.785Z,28.53
2023-01-20T14:26:11.067Z,29.33
2023-01-20T14:28:58.168Z,29.33
2023-01-20T14:31:40.799Z,32.73
2023-01-20T14:34:26.931Z,30.10
2023-01-20T14:36:58.029Z,29.60
2023-01-20T14:39:28.593Z,31.97
2023-01-20T14:41:59.071Z,29.00
2023-01-20T14:44:30.038Z,33.83
2023-01-20T14:47:04.462Z,32.80
2023-01-20T14:49:39.629Z,32.07
2023-01-20T14:52:08.878Z,30.10
2023-01-20T14:54:43.573Z,38.90
2023-01-20T14:57:31.063Z,31.13
2023-01-20T15:00:23.505Z,30.43
2023-01-20T15:03:10.149Z,30.87
2023-01-20T15:05:41.916Z,33.27
2023-01-20T15:08:26.523Z,34.97
2023-01-20T15:11:22.443Z,38.37
2023-01-20T15:14:12.968Z,35.00
2023-01-20T15:16:52.112Z,36.77
2023-01-20T15:19:47.282Z,35.90
2023-01-20T15:22:24.471Z,36.67
2023-01-20T15:24:54.728Z,37.20
2023-01-20T15:27:34.527Z,44.23
2023-01-20T15:30:19.688Z,38.93
2023-01-20T15:32:49.580Z,38.40
2023-01-20T15:35:23.007Z,40.17
2023-01-20T15:37:52.009Z,39.70
2023-01-20T15:40:23.339Z,35.50
2023-01-20T15:42:53.616Z,34.40
2023-01-20T15:45:22.367Z,32.53
2023-01-20T15:47:51.217Z,33.77
2023-01-20T15:50:23.455Z,31.67
2023-01-20T15:52:51.944Z,28.73
2023-01-20T15:55:21.317Z,32.17
2023-01-20T15:57:53.035Z,30.57
2023-01-20T16:00:28.669Z,31.47
2023-01-20T16:02:57.237Z,28.53
2023-01-20T16:05:27.136Z,26.23
2023-01-20T16:07:55.646Z,24.63
2023-01-20T16:10:24.120Z,30.50
2023-01-20T16:12:52.572Z,28.33
2023-01-20T16:15:21.074Z,29.00
2023-01-20T16:17:51.329Z,30.70
2023-01-20T16:20:22.059Z,36.53
2023-01-20T16:22:52.108Z,32.40
2023-01-20T16:25:20.982Z,32.43
2023-01-20T16:27:49.441Z,32.73
2023-01-20T16:30:19.693Z,35.73
2023-01-20T16:32:48.179Z,33.30
2023-01-20T16:35:20.416Z,33.63
2023-01-20T16:37:49.213Z,35.50
2023-01-20T16:40:21.759Z,32.60
2023-01-20T16:42:50.121Z,30.50
2023-01-20T16:45:25.470Z,32.47
2023-01-20T16:47:54.327Z,30.93
2023-01-20T16:50:22.963Z,29.13
2023-01-20T16:52:51.360Z,34.80
2023-01-20T16:55:21.698Z,32.17
2023-01-20T16:57:53.298Z,35.83
2023-01-20T17:00:25.603Z,28.83
2023-01-20T17:02:54.713Z,29.93
2023-01-20T17:05:25.706Z,25.00
2023-01-20T17:07:58.905Z,31.87
2023-01-20T17:10:33.289Z,30.00
2023-01-20T17:13:01.747Z,30.23
2023-01-20T17:15:30.270Z,29.77
2023-01-20T17:18:00.410Z,28.70
2023-01-20T17:20:35.163Z,29.33
2023-01-20T17:23:04.101Z,30.70
2023-01-20T17:25:34.014Z,36.10
2023-01-20T17:28:05.293Z,32.73
2023-01-20T17:30:34.871Z,27.13
2023-01-20T17:33:03.435Z,30.27
2023-01-20T17:35:32.011Z,26.93
2023-01-20T17:38:02.328Z,26.10
2023-01-20T17:40:30.916Z,30.90
2023-01-20T17:43:00.670Z,32.80
2023-01-20T17:45:32.130Z,29.43
2023-01-20T17:48:01.674Z,29.17
2023-01-20T17:50:34.629Z,29.90
2023-01-20T17:53:03.397Z,31.07
2023-01-20T17:55:38.106Z,29.90
2023-01-20T17:58:08.114Z,28.47
2023-01-20T18:00:39.908Z,37.87
2023-01-20T18:03:11.997Z,31.17
2023-01-20T18:05:48.503Z,29.90
2023-01-20T18:08:17.101Z,39.37
2023-01-20T18:10:45.621Z,31.70
2023-01-20T18:13:15.580Z,31.40
2023-01-20T18:15:46.160Z,38.33
2023-01-20T18:18:16.732Z,33.17
2023-01-20T18:20:45.207Z,36.40
2023-01-20T18:23:13.839Z,39.53
2023-01-20T18:25:44.226Z,32.67
2023-01-20T18:28:14.309Z,28.50
2023-01-20T18:30:44.166Z,30.77
2023-01-20T18:33:14.594Z,27.77
2023-01-20T18:35:44.409Z,24.77
2023-01-20T18:38:12.944Z,28.57
2023-01-20T18:40:47.857Z,25.17
2023-01-20T18:43:17.829Z,26.23
2023-01-20T18:45:46.339Z,25.30
2023-01-20T18:48:14.698Z,26.87
2023-01-20T18:50:45.048Z,46.17
2023-01-20T18:53:14.075Z,28.63
2023-01-20T18:55:42.602Z,27.07
2023-01-20T18:58:11.113Z,26.87
2023-01-20T19:00:41.108Z,30.03
2023-01-20T19:03:09.581Z,27.90
2023-01-20T19:05:38.315Z,20.77
2023-01-20T19:08:06.951Z,25.20
2023-01-20T19:10:35.414Z,18.80
2023-01-20T19:13:03.882Z,21.93
2023-01-20T19:15:34.790Z,19.43
2023-01-20T19:18:06.596Z,23.47
2023-01-20T19:20:36.590Z,28.60
2023-01-20T19:23:05.233Z,24.57
2023-01-20T19:25:36.361Z,21.63
2023-01-20T19:28:06.654Z,26.30
2023-01-20T19:30:38.378Z,21.53
2023-01-20T19:33:12.101Z,26.73
2023-01-20T19:35:48.606Z,23.83
2023-01-20T19:38:19.518Z,26.37
2023-01-20T19:40:48.093Z,24.27
2023-01-20T19:43:16.600Z,23.40
2023-01-20T19:45:46.200Z,23.07
2023-01-20T19:48:18.792Z,40.13
2023-01-20T19:50:52.937Z,18.87
2023-01-20T19:53:27.829Z,21.10
2023-01-20T19:56:08.031Z,24.80
2023-01-20T19:58:43.150Z,30.20
2023-01-20T20:01:22.206Z,38.47
2023-01-20T20:03:59.426Z,25.27
2023-01-20T20:06:30.825Z,20.13
2023-01-20T20:09:00.848Z,33.00
2023-01-20T20:11:32.760Z,30.13
2023-01-20T20:14:05.666Z,24.27
2023-01-20T20:16:38.578Z,17.73
2023-01-20T20:19:16.393Z,20.67
2023-01-20T20:21:45.698Z,29.23
2023-01-20T20:24:15.482Z,34.83
2023-01-20T20:26:47.490Z,22.97
2023-01-20T20:29:18.604Z,60.17
2023-01-20T20:31:48.776Z,21.27
2023-01-20T20:34:27.287Z,23.77
2023-01-20T20:37:00.189Z,22.67
2023-01-20T20:39:38.600Z,23.07
2023-01-20T20:42:07.289Z,21.20
2023-01-20T20:44:36.895Z,18.30
2023-01-20T20:47:06.557Z,19.63
2023-01-20T20:49:45.644Z,21.50
2023-01-20T20:52:16.979Z,30.97
2023-01-20T20:54:50.987Z,26.57
2023-01-20T20:57:24.897Z,23.70
2023-01-20T20:59:59.099Z,24.03
2023-01-20T21:02:32.677Z,17.13
2023-01-20T21:05:02.909Z,14.50
2023-01-20T21:07:34.522Z,16.83
2023-01-20T21:10:05.869Z,13.70
2023-01-20T21:12:36.867Z,11.00
2023-01-20T21:15:06.612Z,13.80
2023-01-20T21:17:39.653Z,15.23
2023-01-20T21:20:13.542Z,16.17
2023-01-20T21:22:45.821Z,20.33
2023-01-20T21:25:16.502Z,20.27
2023-01-20T21:27:47.312Z,23.17
2023-01-20T21:30:16.478Z,21.47
2023-01-20T21:32:56.363Z,23.63
2023-01-20T21:35:28.277Z,18.83
2023-01-20T21:37:56.825Z,27.07
2023-01-20T21:40:25.431Z,23.27
2023-01-20T21:43:31.175Z,20.77
2023-01-20T21:46:01.591Z,17.53
2023-01-20T21:48:47.640Z,18.27
2023-01-20T21:51:31.597Z,17.57
2023-01-20T21:54:00.026Z,15.57
2023-01-20T21:56:28.358Z,15.63
2023-01-20T21:59:00.857Z,15.47
2023-01-20T22:01:29.268Z,17.10
2023-01-20T22:03:57.746Z,15.30
2023-01-20T22:06:28.928Z,13.67
2023-01-20T22:08:58.570Z,16.70
2023-01-20T22:11:27.234Z,16.53
2023-01-20T22:13:56.293Z,17.73
2023-01-20T22:16:25.795Z,15.53
2023-01-20T22:18:56.994Z,14.73
2023-01-20T22:21:25.935Z,15.27
2023-01-20T22:23:55.740Z,15.40
2023-01-20T22:26:24.336Z,13.90
2023-01-20T22:28:52.726Z,13.03
2023-01-20T22:31:23.569Z,12.93
2023-01-20T22:33:52.896Z,14.27
2023-01-20T22:36:22.756Z,13.43
2023-01-20T22:38:52.529Z,13.47
2023-01-20T22:41:24.387Z,14.10
2023-01-20T22:43:53.157Z,13.60
2023-01-20T22:46:26.163Z,11.27
2023-01-20T22:48:56.559Z,11.10
2023-01-20T22:51:26.901Z,14.40
2023-01-20T22:53:56.403Z,14.27
2023-01-20T22:56:27.943Z,12.93
2023-01-20T22:58:57.192Z,13.20
2023-01-20T23:01:27.657Z,16.33
2023-01-20T23:03:57.156Z,13.10
2023-01-20T23:06:26.743Z,16.67
2023-01-20T23:08:55.224Z,14.83
2023-01-20T23:11:26.131Z,15.73
2023-01-20T23:13:55.116Z,17.90
2023-01-20T23:16:35.156Z,17.37
2023-01-20T23:19:03.750Z,18.67
2023-01-20T23:21:32.436Z,17.07
2023-01-20T23:24:01.001Z,21.00
2023-01-20T23:26:36.716Z,22.07
2023-01-20T23:29:05.401Z,17.50
2023-01-20T23:31:35.406Z,17.47
2023-01-20T23:34:03.975Z,18.17
2023-01-20T23:36:32.279Z,18.37
2023-01-20T23:39:00.889Z,20.93
2023-01-20T23:41:30.702Z,22.10
2023-01-20T23:43:59.203Z,20.47
2023-01-20T23:46:27.711Z,21.50
2023-01-20T23:48:56.234Z,18.77
2023-01-20T23:51:24.752Z,19.63
2023-01-20T23:53:53.129Z,16.87
2023-01-20T23:56:23.775Z,20.07
2023-01-20T23:58:55.248Z,20.40
